首页
METAR-TAF:

METAR-TAF

机场 :

Watson Lake, 育康省, 加拿大

纬度: 60-07N, 经度: 128-49W, 海拔: 690米

当前天气观测

该预报发布于1小时和13分钟前的01:00 UTC
风速7节,风向东转东南
温度 -2°C
湿度 69%
气压 998 hPa
能見度: 32.2公里
多云层高于7500英尺
阴天层高于12000英尺

METAR: CYQH 210100Z 11007KT 20SM BKN075 OVC120 M02/M07 A2948 RMK AC5AC3 PRESFR SLP036

时间: 18:13 (02:13 UTC)

预报

该预报发布于2小时和35分钟前的23:38 UTC
预报有效从21日的 00点(UTC)到 21日的 12点(UTC)
风速8节,风向东南
能見度: 10公里
散云层高于3000英尺
多云层高于5000英尺
短暂存在
从 21日的 00点(UTC)到 21日的 09点(UTC)
能見度: 6.4公里
多云层高于2000英尺
阴天层高于5000英尺
小雪
从 21日的 0900点(UTC)
风速7节,风向东转东南
能見度: 10公里
散云层高于3000英尺

TAF: CYQH 202338Z 2100/2112 14008KT P6SM SCT030 BKN050 TEMPO 2100/2109 4SM -SN BKN020 OVC050 FM210900 12007KT P6SM SCT030 RMK NXT FCST BY 210600Z

超过4000个机场的气象观测和天气预报(METAR&TAF报告)。

可查询的气象台以黄色和红色小点在地图上表示。

将鼠标移到小点上方,可查看气象台名称。

然后点击查看天气观测和预报。

如需切换地图:点击带黑十字的绿色按钮放大地图;点击带横线的绿色按钮缩小地图;或者点击绿色箭头查看邻近地区的地图。


METAR-TAF: